Parsons, Tennessee
Current Conditions -  °F | °C
As of 3:35 AM on Monday 20 Oct 2014 (Local Time) from KPVE Reporting Station
Overcast Overcast  
Wind Chill: 41°   Ceiling: 100
Heat Index: 41°   Visibility: 0.25mi
Dew Point: 41°   Wind: 0mph
Humidity: 100%   Direction: NA
Pressure: 30.06"   Gusts: NA
Location:  35.65°N, 88.13°W
Report Text: KPVE 200835Z AUTO 00000KT 1/4SM OVC001 05/05 A3006 RMK
Loading
Personal Weather Stations






























Interactive Weather Map
Tropical Storm Tracking
New forecast layout! Learn more

10-Day Weather Forecast

Advertisements
Track Severe Weather on mobile